Observations for AUCKLAND INTL A, New Zealand (NZAA)

NZAA 202000Z AUTO 04005KT 9999 FEW090/// 22/20 Q1017 NOSIG  
NZAA 201930Z AUTO 05007KT 9999 NCD 22/19 Q1017 NOSIG
NZAA 201900Z AUTO 06006KT 9999 NCD 21/19 Q1017 NOSIG
NZAA 201830Z AUTO 05004KT 9999 NCD 20/19 Q1017 NOSIG
NZAA 201800Z AUTO 06004KT 9999 NCD 20/18 Q1016 NOSIG
NZAA 201730Z AUTO 07003KT 9999 FEW034/// 20/18 Q1016 NOSIG  
NZAA 201700Z AUTO 07006KT 9999 FEW017/// 20/19 Q1016 NOSIG  
NZAA 201630Z AUTO 08005KT 050V120 9999 FEW039/// 20/19 Q1016 NOSIG  
NZAA 201600Z AUTO 09003KT 9999 NCD 20/19 Q1016 NOSIG
NZAA 201530Z AUTO 04005KT 9999 NCD 21/19 Q1016 NOSIG
NZAA 201500Z AUTO 02006KT 9999 NCD 21/19 Q1016 NOSIG
NZAA 201430Z AUTO 03008KT 9999 FEW020/// 21/19 Q1016 NOSIG  
NZAA 201400Z AUTO 03008KT 9999 FEW100/// 21/19 Q1016 NOSIG  
NZAA 201330Z AUTO 04006KT 9999 NCD 21/20 Q1017 NOSIG
NZAA 201300Z AUTO 04005KT 9999 NCD 21/19 Q1017 NOSIG
NZAA 201230Z AUTO 06006KT 9999 NCD 21/19 Q1017 NOSIG
NZAA 201200Z AUTO 05007KT 9999 FEW019/// SCT025/// 21/19 Q1017 NOSIG
NZAA 201130Z AUTO 05008KT 350V100 9999 SCT017/// SCT090/// 22/19 Q1017 TEMPO BKN012 
NZAA 201100Z AUTO 05005KT 020V120 9999 BKN015/// BKN024/// OVC090/// 22/20 Q1017 NOSIG  
NZAA 201030Z AUTO 08004KT 9999 SCT013/// BKN019/// BKN050/// 22/20 Q1017 NOSIG  
NZAA 201000Z AUTO 08004KT 9999 BKN014/// BKN021/// OVC050/// 22/20 Q1017 TEMPO BKN016   
NZAA 200930Z AUTO 10003KT 9999 SCT014/// BKN019/// OVC025/// 22/20 Q1017 TEMPO BKN012   
NZAA 200900Z AUTO 09002KT 9999 OVC015/// 22/20 Q1016 TEMPO BKN012   
NZAA 200830Z AUTO 05004KT 9999 OVC014/// 22/20 Q1016 TEMPO BKN016   
NZAA 200800Z AUTO 05003KT 9999 BKN015/// 22/19 Q1016 TEMPO BKN012   
NZAA 200730Z AUTO 03005KT 350V080 9999 FEW016/// SCT022/// BKN044/// 22/19 Q1016 TEMPO FM0800 BKN012
NZAA 200700Z AUTO 04006KT 010V080 9999 SCT021/// BKN042/// 22/19 Q1015 NOSIG
NZAA 200630Z AUTO 04004KT 9999 SCT025/// BKN040/// 22/19 Q1015 NOSIG
NZAA 200600Z AUTO 04003KT 9999 -RA FEW027/// BKN033/// OVC055/// 22/18 Q1015 NOSIG  
NZAA 200530Z AUTO 05005KT 020V090 9999 FEW030/// BKN038/// OVC060/// 22/19 Q1015 NOSIG  
NZAA 200500Z AUTO 02006KT 360V100 9999 BKN033/// OVC043/// 23/18 Q1015 NOSIG
NZAA 200430Z AUTO 03006KT 9999 OVC037/// 23/17 Q1015 NOSIG  
NZAA 200400Z AUTO 04007KT 010V070 9999 -RA SCT045/// BKN060/// 23/17 Q1015 NOSIG
NZAA 200330Z AUTO 35009KT 9999 -RA SCT050/// OVC060/// 23/17 Q1015 NOSIG
NZAA 200300Z AUTO 35010KT 310V030 9999 BKN055/// 24/15 Q1015 NOSIG  
NZAA 200230Z AUTO 03008KT 350V070 9999 BKN046/// BKN055/// 25/15 Q1015 NOSIG
NZAA 200200Z AUTO 02010KT 9999 BKN043/// OVC050/// 25/14 Q1015 NOSIG
NZAA 200130Z AUTO 03008KT 360V060 9999 OVC043/// 26/15 Q1015 NOSIG  
NZAA 200100Z AUTO 02007KT 330V050 9999 OVC044/// 26/15 Q1015 NOSIG  
NZAA 200030Z AUTO 19003KT 9999 BKN043/// BKN060/// 25/17 Q1015 NOSIG
NZAA 200000Z AUTO 21006KT 190V250 9999 BKN065/// 24/17 Q1015 NOSIG  
NZAA 192330Z AUTO 20007KT 9999 FEW039/// BKN060/// 24/17 Q1015 NOSIG
NZAA 192300Z AUTO 21006KT 9999 FEW065/// 23/17 Q1015 NOSIG  
NZAA 192230Z AUTO 21006KT 170V260 9999 NCD 23/17 Q1015 NOSIG
NZAA 192200Z AUTO 18004KT 140V230 9999 NCD 23/17 Q1015 NOSIG
NZAA 192130Z AUTO 14003KT 9999 SCT050/// 22/17 Q1015 NOSIG  
NZAA 192100Z AUTO 03002KT 9999 OVC050/// 21/17 Q1015 NOSIG  
NZAA 192030Z AUTO 10002KT 9999 OVC050/// 19/17 Q1016 NOSIG  
NZAA 192000Z AUTO 11002KT 9999 OVC050/// 19/17 Q1015 NOSIG  
NZAA 191930Z AUTO 14003KT 9999 BKN050/// 18/17 Q1015 NOSIG